sensor_id;sensor_type;location;lat;lon;timestamp;P1;durP1;ratioP1;P2;durP2;ratioP2
757;SDS011;363;48.764;9.172;2024-01-16T00:01:44;6.50;;;4.00;;
757;SDS011;363;48.764;9.172;2024-01-16T00:04:10;5.80;;;4.17;;
757;SDS011;363;48.764;9.172;2024-01-16T00:06:42;4.90;;;4.20;;
757;SDS011;363;48.764;9.172;2024-01-16T00:09:08;3.95;;;3.53;;
757;SDS011;363;48.764;9.172;2024-01-16T00:11:39;5.15;;;3.63;;
757;SDS011;363;48.764;9.172;2024-01-16T00:14:08;4.70;;;3.55;;
757;SDS011;363;48.764;9.172;2024-01-16T00:16:33;4.47;;;4.03;;
757;SDS011;363;48.764;9.172;2024-01-16T00:19:06;4.20;;;3.58;;
757;SDS011;363;48.764;9.172;2024-01-16T00:21:31;4.80;;;3.70;;
757;SDS011;363;48.764;9.172;2024-01-16T00:23:57;4.63;;;4.10;;
757;SDS011;363;48.764;9.172;2024-01-16T00:26:23;5.17;;;4.40;;
757;SDS011;363;48.764;9.172;2024-01-16T00:28:48;4.10;;;3.70;;
757;SDS011;363;48.764;9.172;2024-01-16T00:31:14;4.13;;;3.43;;
757;SDS011;363;48.764;9.172;2024-01-16T00:33:39;4.40;;;3.50;;
757;SDS011;363;48.764;9.172;2024-01-16T00:36:05;5.60;;;4.07;;
757;SDS011;363;48.764;9.172;2024-01-16T00:38:34;6.43;;;4.50;;
757;SDS011;363;48.764;9.172;2024-01-16T00:41:00;5.55;;;3.95;;
757;SDS011;363;48.764;9.172;2024-01-16T00:43:25;4.20;;;3.80;;
757;SDS011;363;48.764;9.172;2024-01-16T00:45:51;6.60;;;4.37;;
757;SDS011;363;48.764;9.172;2024-01-16T00:48:17;4.63;;;3.17;;
757;SDS011;363;48.764;9.172;2024-01-16T00:50:44;4.00;;;3.33;;
757;SDS011;363;48.764;9.172;2024-01-16T00:53:11;5.32;;;3.70;;
757;SDS011;363;48.764;9.172;2024-01-16T00:55:36;6.30;;;3.90;;
757;SDS011;363;48.764;9.172;2024-01-16T00:58:02;5.00;;;3.57;;
757;SDS011;363;48.764;9.172;2024-01-16T01:00:28;4.60;;;3.67;;
757;SDS011;363;48.764;9.172;2024-01-16T01:02:56;4.70;;;3.75;;
757;SDS011;363;48.764;9.172;2024-01-16T01:05:21;3.60;;;3.20;;
757;SDS011;363;48.764;9.172;2024-01-16T01:07:53;6.47;;;3.67;;
757;SDS011;363;48.764;9.172;2024-01-16T01:10:19;3.78;;;3.42;;
757;SDS011;363;48.764;9.172;2024-01-16T01:12:45;4.40;;;3.40;;
757;SDS011;363;48.764;9.172;2024-01-16T01:15:10;4.93;;;3.70;;
757;SDS011;363;48.764;9.172;2024-01-16T01:17:37;6.10;;;3.95;;
757;SDS011;363;48.764;9.172;2024-01-16T01:20:02;4.83;;;4.17;;
757;SDS011;363;48.764;9.172;2024-01-16T01:22:28;4.73;;;3.70;;
757;SDS011;363;48.764;9.172;2024-01-16T01:24:53;5.03;;;3.20;;
757;SDS011;363;48.764;9.172;2024-01-16T01:27:19;5.63;;;4.00;;
757;SDS011;363;48.764;9.172;2024-01-16T01:29:45;6.73;;;3.23;;
757;SDS011;363;48.764;9.172;2024-01-16T01:32:11;7.50;;;4.30;;
757;SDS011;363;48.764;9.172;2024-01-16T01:34:36;4.17;;;3.77;;
757;SDS011;363;48.764;9.172;2024-01-16T01:37:03;5.07;;;4.10;;
757;SDS011;363;48.764;9.172;2024-01-16T01:39:29;5.60;;;3.70;;
757;SDS011;363;48.764;9.172;2024-01-16T01:41:55;6.15;;;4.15;;
757;SDS011;363;48.764;9.172;2024-01-16T01:44:20;6.03;;;4.70;;
757;SDS011;363;48.764;9.172;2024-01-16T01:46:46;4.70;;;3.50;;
757;SDS011;363;48.764;9.172;2024-01-16T01:49:13;4.80;;;3.63;;
757;SDS011;363;48.764;9.172;2024-01-16T01:51:40;6.25;;;3.95;;
757;SDS011;363;48.764;9.172;2024-01-16T01:54:07;5.72;;;3.97;;
757;SDS011;363;48.764;9.172;2024-01-16T01:56:34;4.63;;;3.85;;
757;SDS011;363;48.764;9.172;2024-01-16T01:59:00;5.93;;;4.03;;
757;SDS011;363;48.764;9.172;2024-01-16T02:01:27;4.65;;;3.10;;
757;SDS011;363;48.764;9.172;2024-01-16T02:03:54;6.65;;;4.43;;
757;SDS011;363;48.764;9.172;2024-01-16T02:06:21;5.28;;;3.92;;
757;SDS011;363;48.764;9.172;2024-01-16T02:08:47;4.97;;;3.40;;
757;SDS011;363;48.764;9.172;2024-01-16T02:11:13;3.90;;;3.50;;
757;SDS011;363;48.764;9.172;2024-01-16T02:13:39;7.25;;;4.15;;
757;SDS011;363;48.764;9.172;2024-01-16T02:16:16;3.83;;;3.30;;
757;SDS011;363;48.764;9.172;2024-01-16T02:18:43;5.72;;;3.60;;
757;SDS011;363;48.764;9.172;2024-01-16T02:21:08;4.80;;;3.40;;
757;SDS011;363;48.764;9.172;2024-01-16T02:23:34;4.27;;;3.87;;
757;SDS011;363;48.764;9.172;2024-01-16T02:26:00;6.10;;;4.10;;
757;SDS011;363;48.764;9.172;2024-01-16T02:28:26;5.55;;;3.40;;
757;SDS011;363;48.764;9.172;2024-01-16T02:30:52;4.68;;;4.10;;
757;SDS011;363;48.764;9.172;2024-01-16T02:33:18;5.50;;;3.50;;
757;SDS011;363;48.764;9.172;2024-01-16T02:35:43;7.43;;;4.20;;
757;SDS011;363;48.764;9.172;2024-01-16T02:38:09;6.13;;;3.73;;
757;SDS011;363;48.764;9.172;2024-01-16T02:40:34;7.27;;;4.90;;
757;SDS011;363;48.764;9.172;2024-01-16T02:43:00;6.13;;;3.93;;
757;SDS011;363;48.764;9.172;2024-01-16T02:45:25;5.00;;;3.77;;
757;SDS011;363;48.764;9.172;2024-01-16T02:47:51;4.67;;;4.07;;
757;SDS011;363;48.764;9.172;2024-01-16T02:50:17;6.50;;;4.27;;
757;SDS011;363;48.764;9.172;2024-01-16T02:52:42;6.83;;;4.53;;
757;SDS011;363;48.764;9.172;2024-01-16T02:55:08;4.50;;;3.73;;
757;SDS011;363;48.764;9.172;2024-01-16T02:57:34;5.15;;;4.00;;
757;SDS011;363;48.764;9.172;2024-01-16T02:59:59;4.00;;;3.20;;
757;SDS011;363;48.764;9.172;2024-01-16T03:02:25;4.63;;;3.60;;
757;SDS011;363;48.764;9.172;2024-01-16T03:04:51;3.77;;;3.47;;
757;SDS011;363;48.764;9.172;2024-01-16T03:07:16;6.10;;;4.07;;
757;SDS011;363;48.764;9.172;2024-01-16T03:09:42;6.90;;;3.43;;
757;SDS011;363;48.764;9.172;2024-01-16T03:12:07;4.87;;;3.80;;
757;SDS011;363;48.764;9.172;2024-01-16T03:14:33;5.57;;;4.00;;
757;SDS011;363;48.764;9.172;2024-01-16T03:17:01;5.57;;;3.83;;
757;SDS011;363;48.764;9.172;2024-01-16T03:19:27;5.30;;;3.42;;
757;SDS011;363;48.764;9.172;2024-01-16T03:21:52;3.90;;;3.50;;
757;SDS011;363;48.764;9.172;2024-01-16T03:24:18;5.57;;;3.55;;
757;SDS011;363;48.764;9.172;2024-01-16T03:26:45;6.13;;;3.85;;
757;SDS011;363;48.764;9.172;2024-01-16T03:29:10;5.03;;;3.80;;
757;SDS011;363;48.764;9.172;2024-01-16T03:31:36;6.30;;;3.87;;
757;SDS011;363;48.764;9.172;2024-01-16T03:34:01;4.50;;;3.73;;
757;SDS011;363;48.764;9.172;2024-01-16T03:36:27;5.77;;;3.90;;
757;SDS011;363;48.764;9.172;2024-01-16T03:38:53;4.57;;;3.60;;
757;SDS011;363;48.764;9.172;2024-01-16T03:41:18;4.47;;;3.33;;
757;SDS011;363;48.764;9.172;2024-01-16T03:43:44;5.97;;;3.80;;
757;SDS011;363;48.764;9.172;2024-01-16T03:46:12;5.40;;;3.97;;
757;SDS011;363;48.764;9.172;2024-01-16T03:48:38;4.55;;;3.40;;
757;SDS011;363;48.764;9.172;2024-01-16T03:51:05;5.72;;;3.70;;
757;SDS011;363;48.764;9.172;2024-01-16T03:53:34;5.72;;;3.78;;
757;SDS011;363;48.764;9.172;2024-01-16T03:56:00;4.53;;;3.15;;
757;SDS011;363;48.764;9.172;2024-01-16T03:58:25;4.57;;;3.13;;
757;SDS011;363;48.764;9.172;2024-01-16T04:00:51;5.50;;;3.37;;
757;SDS011;363;48.764;9.172;2024-01-16T04:03:18;4.30;;;3.85;;
757;SDS011;363;48.764;9.172;2024-01-16T04:05:43;4.07;;;3.17;;
757;SDS011;363;48.764;9.172;2024-01-16T04:08:09;5.60;;;3.23;;
757;SDS011;363;48.764;9.172;2024-01-16T04:10:34;7.80;;;3.97;;
757;SDS011;363;48.764;9.172;2024-01-16T04:13:00;4.73;;;3.70;;
757;SDS011;363;48.764;9.172;2024-01-16T04:15:27;4.60;;;4.20;;
757;SDS011;363;48.764;9.172;2024-01-16T04:17:53;4.88;;;3.33;;
757;SDS011;363;48.764;9.172;2024-01-16T04:20:19;5.10;;;3.67;;
757;SDS011;363;48.764;9.172;2024-01-16T04:22:45;5.53;;;3.83;;
757;SDS011;363;48.764;9.172;2024-01-16T04:25:10;4.40;;;3.50;;
757;SDS011;363;48.764;9.172;2024-01-16T04:27:36;4.90;;;3.20;;
757;SDS011;363;48.764;9.172;2024-01-16T04:30:01;7.47;;;4.00;;
757;SDS011;363;48.764;9.172;2024-01-16T04:32:27;5.30;;;4.40;;
757;SDS011;363;48.764;9.172;2024-01-16T04:34:53;7.53;;;3.90;;
757;SDS011;363;48.764;9.172;2024-01-16T04:37:19;6.03;;;4.10;;
757;SDS011;363;48.764;9.172;2024-01-16T04:39:44;4.80;;;3.67;;
757;SDS011;363;48.764;9.172;2024-01-16T04:42:10;5.57;;;4.20;;
757;SDS011;363;48.764;9.172;2024-01-16T04:44:36;4.20;;;3.40;;
757;SDS011;363;48.764;9.172;2024-01-16T04:47:02;3.67;;;2.90;;
757;SDS011;363;48.764;9.172;2024-01-16T04:49:27;6.90;;;4.30;;
757;SDS011;363;48.764;9.172;2024-01-16T04:51:53;4.90;;;3.50;;
757;SDS011;363;48.764;9.172;2024-01-16T04:54:18;4.57;;;4.00;;
757;SDS011;363;48.764;9.172;2024-01-16T04:56:44;5.50;;;3.60;;
757;SDS011;363;48.764;9.172;2024-01-16T04:59:10;6.33;;;3.73;;
757;SDS011;363;48.764;9.172;2024-01-16T05:01:35;5.30;;;3.53;;
757;SDS011;363;48.764;9.172;2024-01-16T05:04:01;3.60;;;3.30;;
757;SDS011;363;48.764;9.172;2024-01-16T05:06:28;5.82;;;3.70;;
757;SDS011;363;48.764;9.172;2024-01-16T05:08:54;5.53;;;3.53;;
757;SDS011;363;48.764;9.172;2024-01-16T05:11:20;4.00;;;3.17;;
757;SDS011;363;48.764;9.172;2024-01-16T05:13:46;8.17;;;4.17;;
757;SDS011;363;48.764;9.172;2024-01-16T05:16:12;4.17;;;3.53;;
757;SDS011;363;48.764;9.172;2024-01-16T05:18:41;5.65;;;3.22;;
757;SDS011;363;48.764;9.172;2024-01-16T05:21:06;5.00;;;3.22;;
757;SDS011;363;48.764;9.172;2024-01-16T05:23:32;3.67;;;3.00;;
757;SDS011;363;48.764;9.172;2024-01-16T05:25:57;5.67;;;4.90;;
757;SDS011;363;48.764;9.172;2024-01-16T05:28:23;7.13;;;4.60;;
757;SDS011;363;48.764;9.172;2024-01-16T05:30:49;4.57;;;3.90;;
757;SDS011;363;48.764;9.172;2024-01-16T05:33:14;5.30;;;3.23;;
757;SDS011;363;48.764;9.172;2024-01-16T05:35:40;4.47;;;3.53;;
757;SDS011;363;48.764;9.172;2024-01-16T05:38:06;4.90;;;4.03;;
757;SDS011;363;48.764;9.172;2024-01-16T05:40:32;6.87;;;4.00;;
757;SDS011;363;48.764;9.172;2024-01-16T05:42:57;4.70;;;3.73;;
757;SDS011;363;48.764;9.172;2024-01-16T05:45:23;4.20;;;3.27;;
757;SDS011;363;48.764;9.172;2024-01-16T05:47:48;4.80;;;3.33;;
757;SDS011;363;48.764;9.172;2024-01-16T05:50:14;4.80;;;3.37;;
757;SDS011;363;48.764;9.172;2024-01-16T05:52:43;5.47;;;3.80;;
757;SDS011;363;48.764;9.172;2024-01-16T05:55:09;6.90;;;3.77;;
757;SDS011;363;48.764;9.172;2024-01-16T05:57:35;4.97;;;3.95;;
757;SDS011;363;48.764;9.172;2024-01-16T06:00:01;4.57;;;3.47;;
757;SDS011;363;48.764;9.172;2024-01-16T06:02:30;4.10;;;3.60;;
757;SDS011;363;48.764;9.172;2024-01-16T06:04:56;4.18;;;3.65;;
757;SDS011;363;48.764;9.172;2024-01-16T06:07:22;4.63;;;3.40;;
757;SDS011;363;48.764;9.172;2024-01-16T06:09:48;6.93;;;5.80;;
757;SDS011;363;48.764;9.172;2024-01-16T06:12:13;4.77;;;3.13;;
757;SDS011;363;48.764;9.172;2024-01-16T06:14:39;3.83;;;2.93;;
757;SDS011;363;48.764;9.172;2024-01-16T06:17:04;4.40;;;3.40;;
757;SDS011;363;48.764;9.172;2024-01-16T06:19:31;5.53;;;3.90;;
757;SDS011;363;48.764;9.172;2024-01-16T06:21:57;6.00;;;3.83;;
757;SDS011;363;48.764;9.172;2024-01-16T06:24:23;4.88;;;3.58;;
757;SDS011;363;48.764;9.172;2024-01-16T06:26:49;5.60;;;3.37;;
757;SDS011;363;48.764;9.172;2024-01-16T06:29:15;5.57;;;3.63;;
757;SDS011;363;48.764;9.172;2024-01-16T06:31:40;5.73;;;3.77;;
757;SDS011;363;48.764;9.172;2024-01-16T06:34:06;5.53;;;3.60;;
757;SDS011;363;48.764;9.172;2024-01-16T06:36:31;7.23;;;4.23;;
757;SDS011;363;48.764;9.172;2024-01-16T06:38:57;6.10;;;3.67;;
757;SDS011;363;48.764;9.172;2024-01-16T06:41:22;6.70;;;4.40;;
757;SDS011;363;48.764;9.172;2024-01-16T06:43:48;6.17;;;3.80;;
757;SDS011;363;48.764;9.172;2024-01-16T06:46:13;3.53;;;3.03;;
757;SDS011;363;48.764;9.172;2024-01-16T06:48:39;6.33;;;4.90;;
757;SDS011;363;48.764;9.172;2024-01-16T06:51:05;9.10;;;4.37;;
757;SDS011;363;48.764;9.172;2024-01-16T06:53:30;4.65;;;3.60;;
757;SDS011;363;48.764;9.172;2024-01-16T06:55:56;9.93;;;3.93;;
757;SDS011;363;48.764;9.172;2024-01-16T06:58:22;4.67;;;3.40;;
757;SDS011;363;48.764;9.172;2024-01-16T07:00:47;6.90;;;3.90;;
757;SDS011;363;48.764;9.172;2024-01-16T07:03:13;5.27;;;3.70;;
757;SDS011;363;48.764;9.172;2024-01-16T07:05:39;3.95;;;3.20;;
757;SDS011;363;48.764;9.172;2024-01-16T07:08:06;6.45;;;3.78;;
757;SDS011;363;48.764;9.172;2024-01-16T07:10:32;4.03;;;3.50;;
757;SDS011;363;48.764;9.172;2024-01-16T07:12:57;5.27;;;3.50;;
757;SDS011;363;48.764;9.172;2024-01-16T07:15:23;5.57;;;3.25;;
757;SDS011;363;48.764;9.172;2024-01-16T07:17:49;3.83;;;3.23;;
757;SDS011;363;48.764;9.172;2024-01-16T07:20:14;6.13;;;3.80;;
757;SDS011;363;48.764;9.172;2024-01-16T07:22:40;4.33;;;2.90;;
757;SDS011;363;48.764;9.172;2024-01-16T07:25:06;3.33;;;3.03;;
757;SDS011;363;48.764;9.172;2024-01-16T07:27:32;5.07;;;3.60;;
757;SDS011;363;48.764;9.172;2024-01-16T07:29:57;6.30;;;2.90;;
757;SDS011;363;48.764;9.172;2024-01-16T07:32:23;4.07;;;3.03;;
757;SDS011;363;48.764;9.172;2024-01-16T07:34:48;3.47;;;2.83;;
757;SDS011;363;48.764;9.172;2024-01-16T07:37:14;2.97;;;2.77;;
757;SDS011;363;48.764;9.172;2024-01-16T07:39:40;4.90;;;3.13;;
757;SDS011;363;48.764;9.172;2024-01-16T07:42:06;6.00;;;4.50;;
757;SDS011;363;48.764;9.172;2024-01-16T07:44:32;4.13;;;3.53;;
757;SDS011;363;48.764;9.172;2024-01-16T07:46:58;5.50;;;4.03;;
757;SDS011;363;48.764;9.172;2024-01-16T07:49:23;7.63;;;4.90;;
757;SDS011;363;48.764;9.172;2024-01-16T07:51:49;3.30;;;3.00;;
757;SDS011;363;48.764;9.172;2024-01-16T07:54:15;2.87;;;2.43;;
757;SDS011;363;48.764;9.172;2024-01-16T07:56:40;3.43;;;2.77;;
757;SDS011;363;48.764;9.172;2024-01-16T07:59:06;3.70;;;3.10;;
757;SDS011;363;48.764;9.172;2024-01-16T08:01:32;3.63;;;3.25;;
757;SDS011;363;48.764;9.172;2024-01-16T08:03:58;5.00;;;3.27;;
757;SDS011;363;48.764;9.172;2024-01-16T08:06:23;3.50;;;2.90;;
757;SDS011;363;48.764;9.172;2024-01-16T08:08:49;2.93;;;2.53;;
757;SDS011;363;48.764;9.172;2024-01-16T08:11:15;4.07;;;3.42;;
757;SDS011;363;48.764;9.172;2024-01-16T08:13:41;3.50;;;3.00;;
757;SDS011;363;48.764;9.172;2024-01-16T08:16:07;6.93;;;3.17;;
757;SDS011;363;48.764;9.172;2024-01-16T08:18:33;3.43;;;3.13;;
757;SDS011;363;48.764;9.172;2024-01-16T08:21:00;3.83;;;3.25;;
757;SDS011;363;48.764;9.172;2024-01-16T08:23:26;5.18;;;3.45;;
757;SDS011;363;48.764;9.172;2024-01-16T08:25:52;5.47;;;3.20;;
757;SDS011;363;48.764;9.172;2024-01-16T08:28:17;5.17;;;3.20;;
757;SDS011;363;48.764;9.172;2024-01-16T08:30:43;2.70;;;2.47;;
757;SDS011;363;48.764;9.172;2024-01-16T08:33:09;3.67;;;2.40;;
757;SDS011;363;48.764;9.172;2024-01-16T08:35:36;4.60;;;3.00;;
757;SDS011;363;48.764;9.172;2024-01-16T08:38:02;3.33;;;2.90;;
757;SDS011;363;48.764;9.172;2024-01-16T08:40:29;4.43;;;3.30;;
757;SDS011;363;48.764;9.172;2024-01-16T08:42:55;5.30;;;3.80;;
757;SDS011;363;48.764;9.172;2024-01-16T08:45:21;6.37;;;3.47;;
757;SDS011;363;48.764;9.172;2024-01-16T08:47:48;3.42;;;3.13;;
757;SDS011;363;48.764;9.172;2024-01-16T08:50:14;3.50;;;2.60;;
757;SDS011;363;48.764;9.172;2024-01-16T08:52:40;4.17;;;3.40;;
757;SDS011;363;48.764;9.172;2024-01-16T08:55:05;3.83;;;3.10;;
757;SDS011;363;48.764;9.172;2024-01-16T08:57:31;4.50;;;3.10;;
757;SDS011;363;48.764;9.172;2024-01-16T08:59:57;3.83;;;2.90;;
757;SDS011;363;48.764;9.172;2024-01-16T09:02:23;4.70;;;2.73;;
757;SDS011;363;48.764;9.172;2024-01-16T09:04:49;3.35;;;3.05;;
757;SDS011;363;48.764;9.172;2024-01-16T09:07:15;3.63;;;2.95;;
757;SDS011;363;48.764;9.172;2024-01-16T09:09:41;3.75;;;2.70;;
757;SDS011;363;48.764;9.172;2024-01-16T09:12:07;4.30;;;2.67;;
757;SDS011;363;48.764;9.172;2024-01-16T09:19:45;3.50;;;2.80;;
757;SDS011;363;48.764;9.172;2024-01-16T09:28:10;4.35;;;2.83;;
757;SDS011;363;48.764;9.172;2024-01-16T09:30:37;2.85;;;2.65;;
757;SDS011;363;48.764;9.172;2024-01-16T09:33:03;5.30;;;2.63;;
757;SDS011;363;48.764;9.172;2024-01-16T09:35:31;8.15;;;2.38;;
757;SDS011;363;48.764;9.172;2024-01-16T09:38:07;5.15;;;2.80;;
757;SDS011;363;48.764;9.172;2024-01-16T09:48:37;6.57;;;2.97;;
757;SDS011;363;48.764;9.172;2024-01-16T09:57:48;3.80;;;3.08;;
757;SDS011;363;48.764;9.172;2024-01-16T10:09:13;4.00;;;2.55;;
757;SDS011;363;48.764;9.172;2024-01-16T10:11:41;3.17;;;2.65;;
757;SDS011;363;48.764;9.172;2024-01-16T10:14:07;5.25;;;2.70;;
757;SDS011;363;48.764;9.172;2024-01-16T10:19:22;5.03;;;3.00;;
757;SDS011;363;48.764;9.172;2024-01-16T10:22:19;16.65;;;3.53;;
757;SDS011;363;48.764;9.172;2024-01-16T10:24:48;10.48;;;4.05;;
757;SDS011;363;48.764;9.172;2024-01-16T10:27:31;6.83;;;2.43;;
757;SDS011;363;48.764;9.172;2024-01-16T10:29:57;4.88;;;3.22;;
757;SDS011;363;48.764;9.172;2024-01-16T10:36:02;2.63;;;2.42;;
757;SDS011;363;48.764;9.172;2024-01-16T10:38:46;3.72;;;2.75;;
757;SDS011;363;48.764;9.172;2024-01-16T10:41:35;6.93;;;3.40;;
757;SDS011;363;48.764;9.172;2024-01-16T10:46:40;5.25;;;3.63;;
757;SDS011;363;48.764;9.172;2024-01-16T11:03:50;10.30;;;2.95;;
757;SDS011;363;48.764;9.172;2024-01-16T11:06:19;2.75;;;2.40;;
757;SDS011;363;48.764;9.172;2024-01-16T11:12:27;5.13;;;2.30;;
757;SDS011;363;48.764;9.172;2024-01-16T12:42:28;2.95;;;2.10;;
757;SDS011;363;48.764;9.172;2024-01-16T12:47:29;2.05;;;1.85;;
757;SDS011;363;48.764;9.172;2024-01-16T12:57:03;3.70;;;2.35;;
757;SDS011;363;48.764;9.172;2024-01-16T13:03:29;8.20;;;2.25;;
757;SDS011;363;48.764;9.172;2024-01-16T13:06:22;7.70;;;5.28;;
757;SDS011;363;48.764;9.172;2024-01-16T13:08:50;2.13;;;1.90;;
757;SDS011;363;48.764;9.172;2024-01-16T13:11:31;3.95;;;2.17;;
757;SDS011;363;48.764;9.172;2024-01-16T13:14:37;3.47;;;1.92;;
757;SDS011;363;48.764;9.172;2024-01-16T13:17:04;2.55;;;2.00;;
757;SDS011;363;48.764;9.172;2024-01-16T13:19:31;6.43;;;3.30;;
757;SDS011;363;48.764;9.172;2024-01-16T13:21:58;2.90;;;2.70;;
757;SDS011;363;48.764;9.172;2024-01-16T13:24:34;3.38;;;2.25;;
757;SDS011;363;48.764;9.172;2024-01-16T13:27:42;3.03;;;2.15;;
757;SDS011;363;48.764;9.172;2024-01-16T13:33:46;6.88;;;3.38;;
757;SDS011;363;48.764;9.172;2024-01-16T13:42:29;2.20;;;1.80;;
757;SDS011;363;48.764;9.172;2024-01-16T13:52:27;1.75;;;1.65;;
757;SDS011;363;48.764;9.172;2024-01-16T13:57:49;6.95;;;2.30;;
757;SDS011;363;48.764;9.172;2024-01-16T14:00:14;2.00;;;1.70;;
757;SDS011;363;48.764;9.172;2024-01-16T14:02:52;4.18;;;2.30;;
757;SDS011;363;48.764;9.172;2024-01-16T14:15:22;3.60;;;2.20;;
757;SDS011;363;48.764;9.172;2024-01-16T14:17:52;4.17;;;2.50;;
757;SDS011;363;48.764;9.172;2024-01-16T14:23:14;2.28;;;2.00;;
757;SDS011;363;48.764;9.172;2024-01-16T14:25:58;5.18;;;2.30;;
757;SDS011;363;48.764;9.172;2024-01-16T14:28:32;3.20;;;2.90;;
757;SDS011;363;48.764;9.172;2024-01-16T14:30:58;2.37;;;1.87;;
757;SDS011;363;48.764;9.172;2024-01-16T14:33:25;3.08;;;2.00;;
757;SDS011;363;48.764;9.172;2024-01-16T14:35:50;8.20;;;2.60;;
757;SDS011;363;48.764;9.172;2024-01-16T14:41:47;2.53;;;2.05;;
757;SDS011;363;48.764;9.172;2024-01-16T15:26:17;4.47;;;3.55;;
757;SDS011;363;48.764;9.172;2024-01-16T15:49:05;5.45;;;2.95;;
757;SDS011;363;48.764;9.172;2024-01-16T15:51:31;5.65;;;4.20;;
757;SDS011;363;48.764;9.172;2024-01-16T16:02:20;7.25;;;4.28;;
757;SDS011;363;48.764;9.172;2024-01-16T16:04:50;7.03;;;3.42;;
757;SDS011;363;48.764;9.172;2024-01-16T16:07:16;3.67;;;3.10;;
757;SDS011;363;48.764;9.172;2024-01-16T16:09:42;7.40;;;4.07;;
757;SDS011;363;48.764;9.172;2024-01-16T16:12:08;5.30;;;4.00;;
757;SDS011;363;48.764;9.172;2024-01-16T16:14:38;8.35;;;5.30;;
757;SDS011;363;48.764;9.172;2024-01-16T16:17:05;7.30;;;4.05;;
757;SDS011;363;48.764;9.172;2024-01-16T16:19:33;5.53;;;3.95;;
757;SDS011;363;48.764;9.172;2024-01-16T16:21:59;6.70;;;4.70;;
757;SDS011;363;48.764;9.172;2024-01-16T16:24:25;6.93;;;4.47;;
757;SDS011;363;48.764;9.172;2024-01-16T16:26:51;6.65;;;5.13;;
757;SDS011;363;48.764;9.172;2024-01-16T16:29:18;14.85;;;4.95;;
757;SDS011;363;48.764;9.172;2024-01-16T16:31:44;5.70;;;3.73;;
757;SDS011;363;48.764;9.172;2024-01-16T16:43:03;6.75;;;4.68;;
757;SDS011;363;48.764;9.172;2024-01-16T16:45:29;7.88;;;5.30;;
757;SDS011;363;48.764;9.172;2024-01-16T16:47:56;13.35;;;5.20;;
757;SDS011;363;48.764;9.172;2024-01-16T16:50:22;5.88;;;4.75;;
757;SDS011;363;48.764;9.172;2024-01-16T16:52:48;5.65;;;4.45;;
757;SDS011;363;48.764;9.172;2024-01-16T16:55:14;6.63;;;5.00;;
757;SDS011;363;48.764;9.172;2024-01-16T16:57:39;8.30;;;4.83;;
757;SDS011;363;48.764;9.172;2024-01-16T17:00:05;7.27;;;4.00;;
757;SDS011;363;48.764;9.172;2024-01-16T17:02:33;5.30;;;4.15;;
757;SDS011;363;48.764;9.172;2024-01-16T17:04:59;8.95;;;5.05;;
757;SDS011;363;48.764;9.172;2024-01-16T17:07:24;8.70;;;4.50;;
757;SDS011;363;48.764;9.172;2024-01-16T17:09:50;6.80;;;4.60;;
757;SDS011;363;48.764;9.172;2024-01-16T17:12:16;6.60;;;5.03;;
757;SDS011;363;48.764;9.172;2024-01-16T17:14:41;8.13;;;4.87;;
757;SDS011;363;48.764;9.172;2024-01-16T17:17:07;7.90;;;4.53;;
757;SDS011;363;48.764;9.172;2024-01-16T17:19:32;7.87;;;4.40;;
757;SDS011;363;48.764;9.172;2024-01-16T17:21:58;8.63;;;5.67;;
757;SDS011;363;48.764;9.172;2024-01-16T17:24:24;8.80;;;5.40;;
757;SDS011;363;48.764;9.172;2024-01-16T17:26:49;10.07;;;5.77;;
757;SDS011;363;48.764;9.172;2024-01-16T17:29:15;13.02;;;7.18;;
757;SDS011;363;48.764;9.172;2024-01-16T17:31:41;7.37;;;5.30;;
757;SDS011;363;48.764;9.172;2024-01-16T17:34:06;10.63;;;5.40;;
757;SDS011;363;48.764;9.172;2024-01-16T17:36:32;10.63;;;5.27;;
757;SDS011;363;48.764;9.172;2024-01-16T17:38:57;8.80;;;5.00;;
757;SDS011;363;48.764;9.172;2024-01-16T17:41:26;7.47;;;4.70;;
757;SDS011;363;48.764;9.172;2024-01-16T17:43:53;8.63;;;5.60;;
757;SDS011;363;48.764;9.172;2024-01-16T17:46:22;8.80;;;6.05;;
757;SDS011;363;48.764;9.172;2024-01-16T17:48:47;17.03;;;6.83;;
757;SDS011;363;48.764;9.172;2024-01-16T17:51:13;8.63;;;5.68;;
757;SDS011;363;48.764;9.172;2024-01-16T17:53:39;9.20;;;7.13;;
757;SDS011;363;48.764;9.172;2024-01-16T17:56:07;9.15;;;6.10;;
757;SDS011;363;48.764;9.172;2024-01-16T17:58:33;10.55;;;6.78;;
757;SDS011;363;48.764;9.172;2024-01-16T18:00:59;9.57;;;6.10;;
757;SDS011;363;48.764;9.172;2024-01-16T18:03:24;15.23;;;9.00;;
757;SDS011;363;48.764;9.172;2024-01-16T18:05:53;25.20;;;14.15;;
757;SDS011;363;48.764;9.172;2024-01-16T18:08:19;12.00;;;7.40;;
757;SDS011;363;48.764;9.172;2024-01-16T18:10:45;13.15;;;7.30;;
757;SDS011;363;48.764;9.172;2024-01-16T18:13:14;12.10;;;6.75;;
757;SDS011;363;48.764;9.172;2024-01-16T18:15:40;9.10;;;6.70;;
757;SDS011;363;48.764;9.172;2024-01-16T18:18:06;11.18;;;6.15;;
757;SDS011;363;48.764;9.172;2024-01-16T18:20:34;12.27;;;6.65;;
757;SDS011;363;48.764;9.172;2024-01-16T18:23:00;9.40;;;7.13;;
757;SDS011;363;48.764;9.172;2024-01-16T18:25:28;8.15;;;6.40;;
757;SDS011;363;48.764;9.172;2024-01-16T18:27:53;19.13;;;7.70;;
757;SDS011;363;48.764;9.172;2024-01-16T18:30:22;11.55;;;7.75;;
757;SDS011;363;48.764;9.172;2024-01-16T18:32:50;17.38;;;8.32;;
757;SDS011;363;48.764;9.172;2024-01-16T18:35:16;13.20;;;8.30;;
757;SDS011;363;48.764;9.172;2024-01-16T18:37:42;10.60;;;8.00;;
757;SDS011;363;48.764;9.172;2024-01-16T18:40:08;12.32;;;7.85;;
757;SDS011;363;48.764;9.172;2024-01-16T18:42:35;10.50;;;7.57;;
757;SDS011;363;48.764;9.172;2024-01-16T18:45:02;14.45;;;8.93;;
757;SDS011;363;48.764;9.172;2024-01-16T18:47:29;13.75;;;8.02;;
757;SDS011;363;48.764;9.172;2024-01-16T18:49:56;9.30;;;7.93;;
757;SDS011;363;48.764;9.172;2024-01-16T18:52:22;17.48;;;8.38;;
757;SDS011;363;48.764;9.172;2024-01-16T18:54:48;10.07;;;7.93;;
757;SDS011;363;48.764;9.172;2024-01-16T18:57:15;14.02;;;9.27;;
757;SDS011;363;48.764;9.172;2024-01-16T18:59:42;13.85;;;8.07;;
757;SDS011;363;48.764;9.172;2024-01-16T19:02:10;11.63;;;8.75;;
757;SDS011;363;48.764;9.172;2024-01-16T19:04:36;12.90;;;8.55;;
757;SDS011;363;48.764;9.172;2024-01-16T19:07:02;11.93;;;8.43;;
757;SDS011;363;48.764;9.172;2024-01-16T19:09:36;15.75;;;9.90;;
757;SDS011;363;48.764;9.172;2024-01-16T19:12:02;15.07;;;9.80;;
757;SDS011;363;48.764;9.172;2024-01-16T19:14:30;11.57;;;8.68;;
757;SDS011;363;48.764;9.172;2024-01-16T19:16:57;12.98;;;10.05;;
757;SDS011;363;48.764;9.172;2024-01-16T19:19:23;14.90;;;8.95;;
757;SDS011;363;48.764;9.172;2024-01-16T19:21:50;16.00;;;10.07;;
757;SDS011;363;48.764;9.172;2024-01-16T19:24:16;14.85;;;8.63;;
757;SDS011;363;48.764;9.172;2024-01-16T19:26:47;15.48;;;9.20;;
757;SDS011;363;48.764;9.172;2024-01-16T19:29:13;13.63;;;10.00;;
757;SDS011;363;48.764;9.172;2024-01-16T19:31:39;13.77;;;9.50;;
757;SDS011;363;48.764;9.172;2024-01-16T19:34:09;18.17;;;9.10;;
757;SDS011;363;48.764;9.172;2024-01-16T19:36:37;12.70;;;8.90;;
757;SDS011;363;48.764;9.172;2024-01-16T19:39:06;11.88;;;8.43;;
757;SDS011;363;48.764;9.172;2024-01-16T19:41:39;17.10;;;8.52;;
757;SDS011;363;48.764;9.172;2024-01-16T19:44:05;15.98;;;10.40;;
757;SDS011;363;48.764;9.172;2024-01-16T19:46:31;19.70;;;9.95;;
757;SDS011;363;48.764;9.172;2024-01-16T19:48:57;12.50;;;9.50;;
757;SDS011;363;48.764;9.172;2024-01-16T19:51:23;12.18;;;9.32;;
757;SDS011;363;48.764;9.172;2024-01-16T19:53:50;14.25;;;10.40;;
757;SDS011;363;48.764;9.172;2024-01-16T19:56:16;17.30;;;8.95;;
757;SDS011;363;48.764;9.172;2024-01-16T19:58:41;12.73;;;9.30;;
757;SDS011;363;48.764;9.172;2024-01-16T20:01:08;14.77;;;9.32;;
757;SDS011;363;48.764;9.172;2024-01-16T20:03:35;13.73;;;9.50;;
757;SDS011;363;48.764;9.172;2024-01-16T20:06:02;23.73;;;10.07;;
757;SDS011;363;48.764;9.172;2024-01-16T20:08:28;13.93;;;8.80;;
757;SDS011;363;48.764;9.172;2024-01-16T20:10:53;17.20;;;9.47;;
757;SDS011;363;48.764;9.172;2024-01-16T20:13:19;11.67;;;8.70;;
757;SDS011;363;48.764;9.172;2024-01-16T20:15:47;14.37;;;9.53;;
757;SDS011;363;48.764;9.172;2024-01-16T20:18:13;14.50;;;10.00;;
757;SDS011;363;48.764;9.172;2024-01-16T20:20:39;14.23;;;9.30;;